📊 Raw Sensor Data
Showing records 50251 to 50275 of 85,131 total
| ID | Distance (ft) | Battery V | Battery A | Int Temp (°F) | Int Humid (%) | Ext Temp (°F) | Solar V | RSSI | SNR | Time Stamp |
|---|---|---|---|---|---|---|---|---|---|---|
| 34893 | 15.2 | 4.09 | 36 | 60 | 42 | 54 | 4.50 | -79 | 7 | 03/13/2025 06:30 PM |
| 34892 | 15.2 | 4.07 | 5 | 62 | 41 | 55 | 5.10 | -78 | 7 | 03/13/2025 06:15 PM |
| 34891 | 15.3 | 4.03 | 5 | 63 | 41 | 56 | 5.10 | -80 | 8 | 03/13/2025 06:00 PM |
| 34890 | 15.2 | 4.03 | 0 | 65 | 40 | 57 | 5.10 | -79 | 8 | 03/13/2025 05:45 PM |
| 34889 | 15.3 | 4.03 | 0 | 66 | 39 | 58 | 5.10 | -80 | 8 | 03/13/2025 05:30 PM |
| 34888 | 15.3 | 4.03 | 5 | 67 | 39 | 60 | 5.10 | -78 | 8 | 03/13/2025 05:15 PM |
| 34887 | 15.3 | 4.03 | 0 | 68 | 38 | 59 | 5.10 | -80 | 7 | 03/13/2025 05:00 PM |
| 34886 | 15.3 | 4.04 | 5 | 69 | 37 | 60 | 5.10 | -82 | 7 | 03/13/2025 04:45 PM |
| 34885 | 15.3 | 4.03 | 5 | 69 | 36 | 62 | 5.10 | -80 | 7 | 03/13/2025 04:30 PM |
| 34884 | 15.3 | 4.03 | 5 | 68 | 36 | 61 | 5.10 | -79 | 8 | 03/13/2025 04:15 PM |
| 34883 | 15.2 | 4.07 | 5 | 63 | 38 | 57 | 5.10 | -82 | 8 | 03/13/2025 04:00 PM |
| 34882 | 15.3 | 4.13 | 5 | 62 | 39 | 57 | 5.10 | -78 | 7 | 03/13/2025 03:45 PM |
| 34881 | 15.2 | 4.03 | 5 | 62 | 39 | 58 | 5.10 | -81 | 8 | 03/13/2025 03:30 PM |
| 34880 | 15.2 | 4.15 | 5 | 61 | 40 | 56 | 5.10 | -79 | 7 | 03/13/2025 03:15 PM |
| 34879 | 15.2 | 4.03 | 5 | 60 | 41 | 56 | 5.10 | -80 | 7 | 03/13/2025 03:00 PM |
| 34878 | 15.3 | 4.03 | 5 | 64 | 38 | 55 | 5.10 | -78 | 8 | 03/13/2025 02:45 PM |
| 34877 | 15.3 | 4.02 | 5 | 66 | 37 | 60 | 5.10 | -79 | 7 | 03/13/2025 02:30 PM |
| 34876 | 15.3 | 4.02 | 0 | 63 | 38 | 56 | 5.10 | -81 | 7 | 03/13/2025 02:00 PM |
| 34875 | 15.3 | 4.09 | 5 | 63 | 37 | 57 | 5.10 | -81 | 7 | 03/13/2025 01:45 PM |
| 34874 | 15.2 | 4.02 | 0 | 62 | 38 | 57 | 5.10 | -82 | 8 | 03/13/2025 01:30 PM |
| 34873 | 15.3 | 4.07 | 5 | 61 | 37 | 57 | 5.10 | -78 | 8 | 03/13/2025 01:15 PM |
| 34872 | 15.3 | 4.07 | 5 | 60 | 39 | 56 | 5.10 | -78 | 8 | 03/13/2025 01:00 PM |
| 34871 | 15.2 | 4.02 | 5 | 58 | 38 | 53 | 5.10 | -78 | 8 | 03/13/2025 12:45 PM |
| 34870 | 15.2 | 4.02 | 5 | 57 | 39 | 53 | 5.10 | -78 | 8 | 03/13/2025 12:30 PM |
| 34869 | 15.2 | 4.10 | 5 | 58 | 38 | 53 | 5.10 | -78 | 8 | 03/13/2025 12:15 PM |